ADDS METAR Data INFO
IDs: Format: Raw Decoded Include TAF

Data at: 2110 UTC 22 Oct 2017

KIIY 222055Z AUTO 11005KT 10SM CLR 23/16 A3019 RMK AO2 TSNO
KIIY 222035Z AUTO 12007KT 085V145 10SM CLR 24/16 A3019 RMK AO2 TSNO
KIIY 222015Z AUTO 11007KT 085V145 10SM CLR 25/16 A3018 RMK AO2 TSNO
KIIY 221955Z AUTO 11006KT 10SM CLR 25/16 A3018 RMK AO2 TSNO
KIIY 221935Z AUTO 13008KT 10SM CLR 25/16 A3019 RMK AO2 TSNO
KIIY 221915Z AUTO 11007KT 10SM CLR 26/16 A3020 RMK AO2 TSNO
KIIY 221855Z AUTO 10008KT 055V125 10SM CLR 25/16 A3021 RMK AO2 TSNO
KIIY 221835Z AUTO 11005KT 10SM CLR 25/16 A3021 RMK AO2 TSNO
KIIY 221815Z AUTO 10006KT 10SM CLR 26/16 A3021 RMK AO2 TSNO
KIIY 221755Z AUTO 12006KT 10SM CLR 25/16 A3021 RMK AO2 TSNO
KIIY 221735Z AUTO 12004KT 10SM SCT039 SCT047 25/16 A3023 RMK AO2 TSNO
KIIY 221715Z AUTO 10007KT 065V135 10SM SCT039 SCT045 25/16 A3024 RMK AO2 TSNO
KIIY 221655Z AUTO 11008KT 10SM CLR 25/16 A3026 RMK AO2 TSNO
KIIY 221635Z AUTO 10005KT 10SM CLR 25/16 A3027 RMK AO2 TSNO
KIIY 221615Z AUTO 10005KT 10SM CLR 25/17 A3028 RMK AO2 TSNO
KIIY 221555Z AUTO 09007KT 065V125 10SM CLR 24/17 A3028 RMK AO2 TSNO
KIIY 221535Z AUTO 10004KT 10SM CLR 23/17 A3028 RMK AO2 TSNO
KIIY 221510Z AUTO 07006KT 10SM CLR 22/17 A3028 RMK AO2 TSNO
KIIY 221455Z AUTO 07004KT 10SM CLR 21/16 A3029 RMK AO2 TSNO
KIIY 221435Z AUTO 10005KT 10SM CLR 20/16 A3031 RMK AO2 TSNO
KIIY 221415Z AUTO 10004KT 10SM CLR 20/16 A3031 RMK AO2 TSNO
KIIY 221355Z AUTO 09005KT 10SM CLR 18/16 A3031 RMK AO2 TSNO
KIIY 221335Z AUTO 08006KT 10SM CLR 18/16 A3031 RMK AO2 TSNO
KIIY 221315Z AUTO 08004KT 10SM CLR 17/15 A3030 RMK AO2 TSNO
KIIY 221255Z AUTO 08005KT 10SM CLR 16/15 A3030 RMK AO2 TSNO
KIIY 221235Z AUTO 08003KT 10SM SCT036 15/14 A3029 RMK AO2 TSNO
KIIY 221215Z AUTO 09003KT 10SM CLR 14/13 A3028 RMK AO2 TSNO
KIIY 221155Z AUTO 00000KT 10SM SCT027 13/13 A3028 RMK AO2 TSNO
KIIY 221135Z AUTO 08003KT 10SM BKN029 BKN034 14/13 A3028 RMK AO2 TSNO
KIIY 221115Z AUTO 08003KT 10SM BKN031 BKN037 13/13 A3028 RMK AO2 TSNO
KIIY 221055Z AUTO 08003KT 10SM SCT029 SCT034 13/12 A3027 RMK AO2 TSNO
KIIY 221035Z AUTO 08003KT 10SM CLR 13/12 A3027 RMK AO2 TSNO
KIIY 221015Z AUTO 00000KT 10SM CLR 12/12 A3027 RMK AO2 TSNO
KIIY 220955Z AUTO 00000KT 10SM SCT032 SCT038 13/12 A3027 RMK AO2 TSNO
KIIY 220935Z AUTO 00000KT 10SM SCT036 SCT044 13/12 A3027 RMK AO2 TSNO
KIIY 220915Z AUTO 00000KT 10SM CLR 13/12 A3027 RMK AO2 TSNO
KIIY 220855Z AUTO 00000KT 10SM CLR 13/12 A3027 RMK AO2 TSNO
KIIY 220835Z AUTO 00000KT 10SM CLR 12/12 A3026 RMK AO2 TSNO
KIIY 220815Z AUTO 07003KT 10SM CLR 12/12 A3026 RMK AO2 TSNO
KIIY 220755Z AUTO 00000KT 10SM CLR 13/12 A3027 RMK AO2 TSNO
KIIY 220735Z AUTO 00000KT 10SM CLR 13/12 A3027 RMK AO2 TSNO
KIIY 220715Z AUTO 00000KT 10SM CLR 13/12 A3028 RMK AO2 TSNO
KIIY 220655Z AUTO 00000KT 10SM CLR 14/12 A3028 RMK AO2 TSNO
KIIY 220635Z AUTO 00000KT 10SM SCT035 SCT042 14/12 A3028 RMK AO2 TSNO
KIIY 220615Z AUTO 00000KT 10SM SCT035 SCT042 15/12 A3028 RMK AO2 TSNO
KIIY 220555Z AUTO 00000KT 10SM SCT035 15/12 A3028 RMK AO2 TSNO
KIIY 220535Z AUTO 00000KT 10SM SCT037 13/12 A3028 RMK AO2 TSNO
KIIY 220515Z AUTO 09003KT 10SM SCT040 14/12 A3029 RMK AO2 TSNO
KIIY 220455Z AUTO 00000KT 10SM SCT040 15/13 A3029 RMK AO2 TSNO
KIIY 220435Z AUTO 00000KT 10SM SCT040 15/12 A3029 RMK AO2 TSNO
KIIY 220415Z AUTO 00000KT 10SM CLR 14/13 A3029 RMK AO2 TSNO
KIIY 220355Z AUTO 00000KT 10SM CLR 15/13 A3029 RMK AO2 TSNO
KIIY 220335Z AUTO 00000KT 10SM CLR 15/13 A3029 RMK AO2 TSNO
KIIY 220315Z AUTO 00000KT 10SM CLR 15/13 A3029 RMK AO2 TSNO
KIIY 220255Z AUTO 08003KT 10SM CLR 15/13 A3029 RMK AO2 TSNO
KIIY 220235Z AUTO 00000KT 10SM CLR 15/13 A3029 RMK AO2 TSNO
KIIY 220215Z AUTO 00000KT 10SM CLR 16/13 A3029 RMK AO2 TSNO
KIIY 220155Z AUTO 00000KT 10SM CLR 16/14 A3029 RMK AO2 TSNO
KIIY 220135Z AUTO 00000KT 10SM CLR 16/14 A3029 RMK AO2 TSNO
KIIY 220115Z AUTO 00000KT 10SM CLR 16/14 A3029 RMK AO2 TSNO
KIIY 220055Z AUTO 00000KT 10SM CLR 16/14 A3029 RMK AO2 TSNO
KIIY 220035Z AUTO 00000KT 10SM CLR 16/15 A3029 RMK AO2 TSNO
KIIY 220015Z AUTO 00000KT 10SM CLR 17/15 A3029 RMK AO2 TSNO
KIIY 212355Z AUTO 00000KT 10SM CLR 18/15 A3028 RMK AO2 TSNO
KIIY 212335Z AUTO 00000KT 10SM CLR 18/15 A3028 RMK AO2 TSNO
KIIY 212315Z AUTO 00000KT 10SM CLR 18/15 A3028 RMK AO2 TSNO
KIIY 212255Z AUTO 03003KT 10SM CLR 20/15 A3028 RMK AO2 TSNO
KIIY 212235Z AUTO 00000KT 10SM CLR 21/16 A3028 RMK AO2 TSNO
KIIY 212215Z AUTO 00000KT 10SM CLR 22/15 A3028 RMK AO2 TSNO
KIIY 212155Z AUTO 00000KT 10SM CLR 22/15 A3027 RMK AO2 TSNO
KIIY 212135Z AUTO 00000KT 10SM CLR 23/15 A3026 RMK AO2 TSNO
KIIY 212115Z AUTO 00000KT 10SM CLR 23/14 A3027 RMK AO2 TSNO
KIIY 212055Z AUTO 00000KT 10SM CLR 23/13 A3027 RMK AO2 TSNO
KIIY 212035Z AUTO 00000KT 10SM CLR 24/12 A3026 RMK AO2 TSNO
KIIY 212015Z AUTO 08003KT 10SM CLR 24/12 A3026 RMK AO2 TSNO
KIIY 211955Z AUTO 13003KT 10SM CLR 23/11 A3026 RMK AO2 TSNO
KIIY 211935Z AUTO 10005KT 10SM CLR 24/11 A3026 RMK AO2 TSNO
KIIY 211915Z AUTO 13004KT 10SM CLR 23/11 A3027 RMK AO2 TSNO
KIIY 211855Z AUTO 08003KT 10SM CLR 24/12 A3027 RMK AO2 TSNO
KIIY 211835Z AUTO 12004KT 10SM CLR 23/11 A3027 RMK AO2 TSNO
KIIY 211815Z AUTO 14004KT 10SM CLR 23/12 A3028 RMK AO2 TSNO
KIIY 211755Z AUTO 13004KT 10SM CLR 23/12 A3028 RMK AO2 TSNO
KIIY 211735Z AUTO 08005KT 10SM CLR 23/13 A3029 RMK AO2 TSNO
KIIY 211715Z AUTO 12006KT 10SM CLR 23/13 A3030 RMK AO2 TSNO
KIIY 211655Z AUTO 13005KT 10SM CLR 23/13 A3031 RMK AO2 TSNO
KIIY 211640Z AUTO 10005KT 10SM CLR 22/13 A3031 RMK AO2 TSNO
KIIY 211210Z AUTO 00000KT 10SM CLR 10/08 A3029 RMK AO2 TSNO
KIIY 211155Z AUTO 35003KT 10SM CLR 09/08 A3029 RMK AO2 TSNO
KIIY 211135Z AUTO 00000KT 10SM CLR 09/08 A3028 RMK AO2 TSNO
KIIY 211115Z AUTO 00000KT 10SM CLR 08/08 A3028 RMK AO2 TSNO
KIIY 211055Z AUTO 00000KT 10SM CLR 09/08 A3027 RMK AO2 TSNO
KIIY 211035Z AUTO 34003KT 10SM CLR 09/08 A3027 RMK AO2 TSNO
KIIY 211015Z AUTO 00000KT 10SM CLR 09/08 A3026 RMK AO2 TSNO
KIIY 210955Z AUTO 00000KT 10SM CLR 10/08 A3026 RMK AO2 TSNO
KIIY 210935Z AUTO 32003KT 10SM CLR 10/08 A3026 RMK AO2 TSNO
KIIY 210915Z AUTO 33003KT 10SM CLR 10/08 A3024 RMK AO2 TSNO